Observation data for Paducah on 11/19/2019      Previous  Date       Current Mesonet Observations  Soil Data  Daily Summary Page  Observations in Plain Language
KPAD 190600Z 24009KT 13/01 A2994 RMK A01 T01330013  RH  045%=      5-min Rain = 0
KPAD 190605Z 24009KT 13/01 A2994 RMK A01 T01310014  RH  045%=      5-min Rain = 0
KPAD 190610Z 24009KT 13/01 A2994 RMK A01 T01310014  RH  046%=      5-min Rain = 0
KPAD 190615Z 25009KT 13/02 A2994 RMK A01 T01320015  RH  046%=      5-min Rain = 0
KPAD 190620Z 25008KT 13/02 A2993 RMK A01 T01330016  RH  046%=      5-min Rain = 0
KPAD 190625Z 25008KT 13/02 A2993 RMK A01 T01320016  RH  046%=      5-min Rain = 0
KPAD 190630Z 25008KT 13/02 A2994 RMK A01 T01310017  RH  047%=      5-min Rain = 0
KPAD 190635Z 25008KT 13/02 A2994 RMK A01 T01320018  RH  047%=      5-min Rain = 0
KPAD 190640Z 25008KT 13/02 A2993 RMK A01 T01330018  RH  046%=      5-min Rain = 0
KPAD 190645Z 25009KT 13/02 A2994 RMK A01 T01320018  RH  047%=      5-min Rain = 0
KPAD 190650Z 25009KT 13/02 A2994 RMK A01 T01340018  RH  046%=      5-min Rain = 0
KPAD 190655Z 25009KT 14/02 A2994 RMK A01 T01370018  RH  045%=      5-min Rain = 0
KPAD 190700Z 25009KT 14/02 A2994 RMK A01 T01360018  RH  045%=      5-min Rain = 0
KPAD 190705Z 25009KT 13/02 A2994 RMK A01 T01330018  RH  046%=      5-min Rain = 0
KPAD 190710Z 25009KT 13/02 A2993 RMK A01 T01330018  RH  046%=      5-min Rain = 0
KPAD 190715Z 25009KT 13/02 A2993 RMK A01 T01330018  RH  046%=      5-min Rain = 0
KPAD 190720Z 25009KT 13/02 A2993 RMK A01 T01340018  RH  046%=      5-min Rain = 0
KPAD 190725Z 25009KT 13/02 A2993 RMK A01 T01340018  RH  046%=      5-min Rain = 0
KPAD 190730Z 25009KT 13/02 A2993 RMK A01 T01310018  RH  047%=      5-min Rain = 0
KPAD 190735Z 26009KT 13/02 A2993 RMK A01 T01310018  RH  047%=      5-min Rain = 0
KPAD 190740Z 26009KT 13/02 A2994 RMK A01 T01330019  RH  047%=      5-min Rain = 0
KPAD 190745Z 26008KT 13/02 A2994 RMK A01 T01340019  RH  046%=      5-min Rain = 0
KPAD 190750Z 26008KT 13/02 A2994 RMK A01 T01320019  RH  047%=      5-min Rain = 0
KPAD 190755Z 26009KT 13/02 A2994 RMK A01 T01290019  RH  048%=      5-min Rain = 0
KPAD 190800Z 26008KT 13/02 A2993 RMK A01 T01250018  RH  049%=      5-min Rain = 0
KPAD 190805Z 26008KT 12/02 A2993 RMK A01 T01230018  RH  049%=      5-min Rain = 0
KPAD 190810Z 26007KT 12/02 A2993 RMK A01 T01210018  RH  050%=      5-min Rain = 0
KPAD 190815Z 26007KT 12/02 A2993 RMK A01 T01210019  RH  050%=      5-min Rain = 0
KPAD 190820Z 25008KT 12/02 A2993 RMK A01 T01200018  RH  050%=      5-min Rain = 0
KPAD 190825Z 25009KT 12/02 A2993 RMK A01 T01200019  RH  051%=      5-min Rain = 0
KPAD 190830Z 25009KT 12/02 A2993 RMK A01 T01220019  RH  050%=      5-min Rain = 0
KPAD 190835Z 25009KT 12/02 A2993 RMK A01 T01240019  RH  050%=      5-min Rain = 0
KPAD 190840Z 26008KT 12/02 A2993 RMK A01 T01240020  RH  050%=      5-min Rain = 0
KPAD 190845Z 27008KT 12/02 A2993 RMK A01 T01210019  RH  050%=      5-min Rain = 0
KPAD 190850Z 27007KT 12/02 A2993 RMK A01 T01170019  RH  052%=      5-min Rain = 0
KPAD 190855Z 26008KT 11/02 A2993 RMK A01 T01130019  RH  053%=      5-min Rain = 0
KPAD 190900Z 26008KT 11/02 A2993 RMK A01 T01100019  RH  054%=      5-min Rain = 0
KPAD 190905Z 26008KT 11/02 A2993 RMK A01 T01080019  RH  055%=      5-min Rain = 0
KPAD 190910Z 26009KT 11/02 A2993 RMK A01 T01090020  RH  055%=      5-min Rain = 0
KPAD 190915Z 26009KT 11/02 A2993 RMK A01 T01090019  RH  055%=      5-min Rain = 0
KPAD 190920Z 27009KT 11/02 A2993 RMK A01 T01090020  RH  055%=      5-min Rain = 0
KPAD 190925Z 27009KT 11/02 A2993 RMK A01 T01080020  RH  055%=      5-min Rain = 0
KPAD 190930Z 27009KT 11/02 A2994 RMK A01 T01060020  RH  056%=      5-min Rain = 0
KPAD 190935Z 27008KT 11/02 A2994 RMK A01 T01050020  RH  056%=      5-min Rain = 0
KPAD 190940Z 27008KT 11/02 A2994 RMK A01 T01050020  RH  056%=      5-min Rain = 0
KPAD 190945Z 28008KT 11/02 A2994 RMK A01 T01050020  RH  056%=      5-min Rain = 0
KPAD 190950Z 28008KT 10/02 A2994 RMK A01 T01030019  RH  057%=      5-min Rain = 0
KPAD 190955Z 28008KT 10/02 A2994 RMK A01 T01010020  RH  058%=      5-min Rain = 0
KPAD 191000Z 28008KT 10/02 A2994 RMK A01 T01010020  RH  058%=      5-min Rain = 0
KPAD 191005Z 28008KT 10/02 A2994 RMK A01 T01000020  RH  058%=      5-min Rain = 0
KPAD 191010Z 28009KT 10/02 A2994 RMK A01 T01030021  RH  058%=      5-min Rain = 0
KPAD 191015Z 29008KT 10/02 A2994 RMK A01 T01020021  RH  058%=      5-min Rain = 0
KPAD 191020Z 30008KT 10/02 A2994 RMK A01 T01000020  RH  059%=      5-min Rain = 0
KPAD 191025Z 31008KT 10/02 A2995 RMK A01 T00970019  RH  059%=      5-min Rain = 0
KPAD 191030Z 30007KT 09/02 A2995 RMK A01 T00920019  RH  061%=      5-min Rain = 0
KPAD 191035Z 30008KT 09/02 A2995 RMK A01 T00910019  RH  061%=      5-min Rain = 0
KPAD 191040Z 30008KT 09/02 A2995 RMK A01 T00900018  RH  062%=      5-min Rain = 0
KPAD 191045Z 31008KT 09/02 A2995 RMK A01 T00890018  RH  062%=      5-min Rain = 0
KPAD 191050Z 32008KT 09/02 A2995 RMK A01 T00870018  RH  063%=      5-min Rain = 0
KPAD 191055Z 32006KT 08/02 A2995 RMK A01 T00840016  RH  064%=      5-min Rain = 0
KPAD 191100Z 33006KT 08/02 A2995 RMK A01 T00800017  RH  065%=      5-min Rain = 0
KPAD 191105Z 32007KT 08/02 A2995 RMK A01 T00830017  RH  064%=      5-min Rain = 0
KPAD 191110Z 32007KT 08/02 A2995 RMK A01 T00830017  RH  064%=      5-min Rain = 0
KPAD 191115Z 32007KT 08/02 A2995 RMK A01 T00840017  RH  064%=      5-min Rain = 0
KPAD 191120Z 31007KT 09/02 A2995 RMK A01 T00870018  RH  063%=      5-min Rain = 0
KPAD 191125Z 31007KT 09/02 A2995 RMK A01 T00930020  RH  061%=      5-min Rain = 0
KPAD 191130Z 33006KT 09/02 A2995 RMK A01 T00940018  RH  060%=      5-min Rain = 0
KPAD 191135Z 33006KT 09/02 A2995 RMK A01 T00900017  RH  061%=      5-min Rain = 0
KPAD 191140Z 32007KT 09/02 A2995 RMK A01 T00880017  RH  062%=      5-min Rain = 0
KPAD 191145Z 32006KT 09/02 A2995 RMK A01 T00900015  RH  060%=      5-min Rain = 0
KPAD 191150Z 32006KT 09/02 A2995 RMK A01 T00890015  RH  061%=      5-min Rain = 0
KPAD 191155Z 31006KT 09/01 A2995 RMK A01 T00890014  RH  060%=      5-min Rain = 0
KPAD 191200Z 31006KT 09/01 A2995 RMK A01 T00890013  RH  059%=      5-min Rain = 0
KPAD 191205Z 31006KT 09/01 A2995 RMK A01 T00910012  RH  058%=      5-min Rain = 0
KPAD 191210Z 31006KT 09/01 A2995 RMK A01 T00930011  RH  057%=      5-min Rain = 0
KPAD 191215Z 32006KT 09/01 A2995 RMK A01 T00940010  RH  056%=      5-min Rain = 0
KPAD 191220Z 32006KT 09/01 A2995 RMK A01 T00940009  RH  056%=      5-min Rain = 0
KPAD 191225Z 32007KT 10/01 A2995 RMK A01 T00970009  RH  055%=      5-min Rain = 0
KPAD 191230Z 31006KT 10/01 A2995 RMK A01 T00970008  RH  055%=      5-min Rain = 0
KPAD 191235Z 30007KT 09/01 A2995 RMK A01 T00940008  RH  056%=      5-min Rain = 0
KPAD 191240Z 31007KT 09/01 A2995 RMK A01 T00920010  RH  057%=      5-min Rain = 0
KPAD 191245Z 32006KT 09/01 A2994 RMK A01 T00910009  RH  057%=      5-min Rain = 0
KPAD 191250Z 32005KT 09/01 A2994 RMK A01 T00940009  RH  056%=      5-min Rain = 0
KPAD 191255Z 32006KT 10/01 A2994 RMK A01 T00950009  RH  056%=      5-min Rain = 0
KPAD 191300Z 31005KT 10/01 A2994 RMK A01 T00960009  RH  055%=      5-min Rain = 0
KPAD 191305Z 31004KT 10/01 A2994 RMK A01 T00960008  RH  055%=      5-min Rain = 0
KPAD 191310Z 32004KT 10/01 A2994 RMK A01 T00980008  RH  054%=      5-min Rain = 0
KPAD 191315Z 33003KT 10/01 A2994 RMK A01 T01040007  RH  052%=      5-min Rain = 0
KPAD 191320Z 35004KT 11/01 A2993 RMK A01 T01090007  RH  050%=      5-min Rain = 0
KPAD 191325Z 36004KT 11/01 A2993 RMK A01 T01110006  RH  049%=      5-min Rain = 0
KPAD 191330Z 00003KT 11/01 A2993 RMK A01 T01140005  RH  048%=      5-min Rain = 0
KPAD 191335Z 00004KT 12/01 A2994 RMK A01 T01160005  RH  047%=      5-min Rain = 0
KPAD 191340Z 00003KT 12/01 A2994 RMK A01 T01180005  RH  047%=      5-min Rain = 0
KPAD 191345Z 01001KT 12/01 A2993 RMK A01 T01200006  RH  046%=      5-min Rain = 0
KPAD 191350Z 01000KT 12/01 A2994 RMK A01 T01160006  RH  047%=      5-min Rain = 0
KPAD 191355Z 00000KT 11/01 A2993 RMK A01 T01070008  RH  051%=      5-min Rain = 0
KPAD 191400Z 11000KT 10/01 A2993 RMK A01 T00970010  RH  055%=      5-min Rain = 0
KPAD 191405Z 13002KT 10/02 A2994 RMK A01 T00980015  RH  057%=      5-min Rain = 0
KPAD 191410Z 13001KT 11/02 A2994 RMK A01 T01050018  RH  056%=      5-min Rain = 0
KPAD 191415Z 14002KT 11/02 A2994 RMK A01 T01100019  RH  054%=      5-min Rain = 0
KPAD 191420Z 14002KT 11/02 A2994 RMK A01 T01130020  RH  054%=      5-min Rain = 0
KPAD 191425Z 16002KT 12/02 A2994 RMK A01 T01160020  RH  052%=      5-min Rain = 0
KPAD 191430Z 15001KT 12/02 A2994 RMK A01 T01200020  RH  051%=      5-min Rain = 0
KPAD 191435Z 15000KT 13/02 A2994 RMK A01 T01250021  RH  050%=      5-min Rain = 0
KPAD 191440Z 19000KT 13/02 A2994 RMK A01 T01290019  RH  048%=      5-min Rain = 0
KPAD 191445Z 20000KT 13/02 A2994 RMK A01 T01330018  RH  046%=      5-min Rain = 0
KPAD 191450Z 20001KT 14/02 A2994 RMK A01 T01390019  RH  045%=      5-min Rain = 0
KPAD 191455Z 22002KT 14/02 A2994 RMK A01 T01410019  RH  044%=      5-min Rain = 0
KPAD 191500Z 21003KT 15/02 A2995 RMK A01 T01450019  RH  043%=      5-min Rain = 0
KPAD 191505Z 20006KT 15/02 A2995 RMK A01 T01510020  RH  042%=      5-min Rain = 0
KPAD 191510Z 20007KT 15/02 A2995 RMK A01 T01540021  RH  041%=      5-min Rain = 0
KPAD 191515Z 20007KT 15/02 A2995 RMK A01 T01540020  RH  041%=      5-min Rain = 0
KPAD 191520Z 20007KT 15/02 A2995 RMK A01 T01540018  RH  040%=      5-min Rain = 0
KPAD 191525Z 20007KT 16/02 A2995 RMK A01 T01550015  RH  039%=      5-min Rain = 0
KPAD 191530Z 18006KT 16/02 A2995 RMK A01 T01590015  RH  038%=      5-min Rain = 0
KPAD 191535Z 18007KT 16/01 A2995 RMK A01 T01620014  RH  037%=      5-min Rain = 0
KPAD 191540Z 17007KT 17/02 A2995 RMK A01 T01650017  RH  037%=      5-min Rain = 0
KPAD 191545Z 17008KT 17/02 A2996 RMK A01 T01650019  RH  038%=      5-min Rain = 0
KPAD 191550Z 18009KT 16/02 A2996 RMK A01 T01620023  RH  040%=      5-min Rain = 0
KPAD 191555Z 17010KT 16/03 A2996 RMK A01 T01640028  RH  041%=      5-min Rain = 0
KPAD 191600Z 17009KT 17/03 A2996 RMK A01 T01690027  RH  039%=      5-min Rain = 0
KPAD 191605Z 16010KT 17/03 A2995 RMK A01 T01710025  RH  038%=      5-min Rain = 0
KPAD 191610Z 16009KT 17/02 A2995 RMK A01 T01680022  RH  038%=      5-min Rain = 0
KPAD 191615Z 17009KT 17/03 A2995 RMK A01 T01690026  RH  039%=      5-min Rain = 0
KPAD 191620Z 18008KT 17/03 A2995 RMK A01 T01690027  RH  039%=      5-min Rain = 0
KPAD 191625Z 18008KT 17/03 A2995 RMK A01 T01690028  RH  039%=      5-min Rain = 0
KPAD 191630Z 18007KT 17/03 A2995 RMK A01 T01730026  RH  038%=      5-min Rain = 0
KPAD 191635Z 15007KT 18/03 A2995 RMK A01 T01820025  RH  036%=      5-min Rain = 0
KPAD 191640Z 17008KT 19/02 A2995 RMK A01 T01870024  RH  034%=      5-min Rain = 0
KPAD 191645Z 17008KT 19/02 A2994 RMK A01 T01900024  RH  034%=      5-min Rain = 0
KPAD 191650Z 17009KT 19/02 A2994 RMK A01 T01930023  RH  033%=      5-min Rain = 0
KPAD 191655Z 17008KT 19/02 A2994 RMK A01 T01910023  RH  033%=      5-min Rain = 0
KPAD 191700Z 16008KT 19/02 A2994 RMK A01 T01890024  RH  034%=      5-min Rain = 0
KPAD 191705Z 17008KT 19/03 A2994 RMK A01 T01900025  RH  034%=      5-min Rain = 0
KPAD 191710Z 17009KT 19/03 A2994 RMK A01 T01930027  RH  034%=      5-min Rain = 0
KPAD 191715Z 19008KT 20/03 A2994 RMK A01 T02010029  RH  033%=      5-min Rain = 0
KPAD 191720Z 17008KT 21/03 A2993 RMK A01 T02080030  RH  031%=      5-min Rain = 0
KPAD 191725Z 17010KT 21/03 A2993 RMK A01 T02100027  RH  030%=      5-min Rain = 0
KPAD 191730Z 18009KT 21/03 A2993 RMK A01 T02130028  RH  030%=      5-min Rain = 0
KPAD 191735Z 17008KT 21/03 A2992 RMK A01 T02120030  RH  031%=      5-min Rain = 0
KPAD 191740Z 18009KT 21/03 A2992 RMK A01 T02120031  RH  031%=      5-min Rain = 0
KPAD 191745Z 19009KT 22/03 A2992 RMK A01 T02150032  RH  030%=      5-min Rain = 0
KPAD 191750Z 18009G15KT 22/03 A2992 RMK A01 T02160032  RH  030%=      5-min Rain = 0
KPAD 191755Z 18009G15KT 22/03 A2991 RMK A01 T02220033  RH  030%=      5-min Rain = 0
KPAD 191800Z 18009KT 23/03 A2991 RMK A01 T02300034  RH  028%=      5-min Rain = 0
KPAD 191805Z 18011G16KT 23/03 A2991 RMK A01 T02310034  RH  028%=      5-min Rain = 0
KPAD 191810Z 18009KT 22/03 A2991 RMK A01 T02230033  RH  029%=      5-min Rain = 0
KPAD 191815Z 20011KT 23/03 A2991 RMK A01 T02250034  RH  029%=      5-min Rain = 0
KPAD 191820Z 20011KT 23/04 A2991 RMK A01 T02290035  RH  029%=      5-min Rain = 0
KPAD 191825Z 20010KT 23/04 A299 RMK A01 T02290037  RH  029%=      5-min Rain = 0
KPAD 191830Z 18011G16KT 24/04 A299 RMK A01 T02360037  RH  028%=      5-min Rain = 0
KPAD 191835Z 18011KT 23/04 A299 RMK A01 T02340036  RH  028%=      5-min Rain = 0
KPAD 191840Z 18012KT 23/04 A2989 RMK A01 T02310036  RH  029%=      5-min Rain = 0
KPAD 191845Z 18012KT 23/04 A2989 RMK A01 T02290037  RH  029%=      5-min Rain = 0
KPAD 191850Z 18012G18KT 23/04 A2988 RMK A01 T02340038  RH  028%=      5-min Rain = 0
KPAD 191855Z 18012KT 24/04 A2988 RMK A01 T02400037  RH  027%=      5-min Rain = 0
KPAD 191900Z 18014KT 24/04 A2988 RMK A01 T02440038  RH  027%=      5-min Rain = 0
KPAD 191905Z 18014G20KT 25/04 A2987 RMK A01 T02460037  RH  026%=      5-min Rain = 0
KPAD 191910Z 20013KT 25/04 A2987 RMK A01 T02500037  RH  026%=      5-min Rain = 0
KPAD 191915Z 18013G19KT 25/04 A2987 RMK A01 T02510038  RH  026%=      5-min Rain = 0
KPAD 191920Z 19014KT 25/04 A2986 RMK A01 T02480038  RH  026%=      5-min Rain = 0
KPAD 191925Z 19013G18KT 25/04 A2986 RMK A01 T02500040  RH  026%=      5-min Rain = 0
KPAD 191930Z 18015G20KT 25/04 A2986 RMK A01 T02520038  RH  025%=      5-min Rain = 0
KPAD 191935Z 19015G21KT 25/04 A2985 RMK A01 T02510036  RH  025%=      5-min Rain = 0
KPAD 191940Z 19016KT 25/04 A2985 RMK A01 T02510037  RH  025%=      5-min Rain = 0
KPAD 191945Z 18016G21KT 25/04 A2985 RMK A01 T02480037  RH  026%=      5-min Rain = 0
KPAD 191950Z 17014G20KT 25/04 A2984 RMK A01 T02450040  RH  027%=      5-min Rain = 0
KPAD 191955Z 18015G21KT 25/04 A2984 RMK A01 T02510039  RH  026%=      5-min Rain = 0
KPAD 192000Z 18013G20KT 26/04 A2984 RMK A01 T02560037  RH  025%=      5-min Rain = 0
KPAD 192005Z 19015KT 26/04 A2983 RMK A01 T02570035  RH  024%=      5-min Rain = 0
KPAD 192010Z 18015G21KT 26/04 A2983 RMK A01 T02590035  RH  024%=      5-min Rain = 0
KPAD 192015Z 18016G23KT 26/04 A2983 RMK A01 T02580035  RH  024%=      5-min Rain = 0
KPAD 192020Z 18016G24KT 26/03 A2983 RMK A01 T02580031  RH  023%=      5-min Rain = 0
KPAD 192025Z 19017G22KT 26/03 A2982 RMK A01 T02610029  RH  023%=      5-min Rain = 0
KPAD 192030Z 19015G23KT 26/03 A2982 RMK A01 T02610033  RH  023%=      5-min Rain = 0
KPAD 192035Z 19017G23KT 26/03 A2982 RMK A01 T02590033  RH  023%=      5-min Rain = 0
KPAD 192040Z 19016G22KT 26/03 A2982 RMK A01 T02600034  RH  024%=      5-min Rain = 0
KPAD 192045Z 19017G22KT 26/03 A2982 RMK A01 T02580033  RH  024%=      5-min Rain = 0
KPAD 192050Z 19016G21KT 26/03 A2982 RMK A01 T02600034  RH  024%=      5-min Rain = 0
KPAD 192055Z 18016G21KT 26/03 A2981 RMK A01 T02600034  RH  024%=      5-min Rain = 0
KPAD 192100Z 18015G20KT 26/04 A2981 RMK A01 T02600036  RH  024%=      5-min Rain = 0
KPAD 192105Z 20016G22KT 26/03 A2981 RMK A01 T02600034  RH  024%=      5-min Rain = 0
KPAD 192110Z 19016G22KT 26/03 A2981 RMK A01 T02610033  RH  023%=      5-min Rain = 0
KPAD 192115Z 19014G20KT 26/04 A2981 RMK A01 T02590036  RH  024%=      5-min Rain = 0
KPAD 192120Z 18015G22KT 26/04 A298 RMK A01 T02590037  RH  024%=      5-min Rain = 0
KPAD 192125Z 18014G21KT 26/04 A298 RMK A01 T02590040  RH  025%=      5-min Rain = 0
KPAD 192130Z 18016G23KT 26/04 A298 RMK A01 T02590038  RH  024%=      5-min Rain = 0
KPAD 192135Z 18018KT 26/04 A298 RMK A01 T02560038  RH  025%=      5-min Rain = 0
KPAD 192140Z 18017KT 26/04 A298 RMK A01 T02550040  RH  025%=      5-min Rain = 0
KPAD 192145Z 19017G22KT 25/04 A298 RMK A01 T02540042  RH  026%=      5-min Rain = 0
KPAD 192150Z 18015G22KT 25/04 A298 RMK A01 T02530043  RH  026%=      5-min Rain = 0
KPAD 192155Z 18015G21KT 25/04 A298 RMK A01 T02520043  RH  026%=      5-min Rain = 0
KPAD 192200Z 18016G22KT 25/04 A298 RMK A01 T02500043  RH  027%=      5-min Rain = 0
KPAD 192205Z 18014G21KT 25/04 A298 RMK A01 T02490044  RH  027%=      5-min Rain = 0
KPAD 192210Z 18013G18KT 25/05 A298 RMK A01 T02510045  RH  027%=      5-min Rain = 0
KPAD 192215Z 18014G19KT 25/04 A2979 RMK A01 T02520044  RH  027%=      5-min Rain = 0
KPAD 192220Z 18015G20KT 25/04 A2979 RMK A01 T02510043  RH  027%=      5-min Rain = 0
KPAD 192225Z 17013KT 25/04 A298 RMK A01 T02510043  RH  027%=      5-min Rain = 0
KPAD 192230Z 18013G19KT 25/04 A298 RMK A01 T02510042  RH  026%=      5-min Rain = 0
KPAD 192235Z 18014G20KT 25/04 A2979 RMK A01 T02500040  RH  026%=      5-min Rain = 0
KPAD 192240Z 19013G18KT 25/04 A2979 RMK A01 T02490038  RH  026%=      5-min Rain = 0
KPAD 192245Z 18013G21KT 25/04 A2979 RMK A01 T02470038  RH  026%=      5-min Rain = 0
KPAD 192250Z 18012KT 25/04 A2979 RMK A01 T02460039  RH  026%=      5-min Rain = 0
KPAD 192255Z 18011KT 25/04 A2979 RMK A01 T02450039  RH  027%=      5-min Rain = 0
KPAD 192300Z 18011KT 24/04 A2979 RMK A01 T02420037  RH  027%=      5-min Rain = 0
KPAD 192305Z 18010KT 24/04 A298 RMK A01 T02370037  RH  028%=      5-min Rain = 0
KPAD 192310Z 18009KT 23/04 A298 RMK A01 T02330037  RH  028%=      5-min Rain = 0
KPAD 192315Z 17008KT 23/04 A298 RMK A01 T02270037  RH  029%=      5-min Rain = 0
KPAD 192320Z 17008KT 22/04 A298 RMK A01 T02230037  RH  030%=      5-min Rain = 0
KPAD 192325Z 17008KT 22/04 A298 RMK A01 T02190036  RH  031%=      5-min Rain = 0
KPAD 192330Z 17009KT 22/04 A2979 RMK A01 T02150036  RH  031%=      5-min Rain = 0
KPAD 192335Z 17008KT 21/04 A2979 RMK A01 T02120035  RH  032%=      5-min Rain = 0
KPAD 192340Z 17009KT 21/03 A2979 RMK A01 T02090034  RH  032%=      5-min Rain = 0
KPAD 192345Z 17009KT 21/03 A2979 RMK A01 T02060033  RH  032%=      5-min Rain = 0
KPAD 192350Z 17009KT 20/03 A2979 RMK A01 T02040032  RH  033%=      5-min Rain = 0
KPAD 192355Z 16008KT 20/03 A2979 RMK A01 T01990031  RH  034%=      5-min Rain = 0
KPAD 200000Z 17009KT 20/03 A2979 RMK A01 T01950032  RH  035%=      5-min Rain = 0
KPAD 200005Z 16009KT 19/03 A2979 RMK A01 T01920031  RH  035%=      5-min Rain = 0
KPAD 200010Z 16010KT 19/03 A2979 RMK A01 T01920029  RH  034%=      5-min Rain = 0
KPAD 200015Z 17010KT 19/03 A298 RMK A01 T01920026  RH  034%=      5-min Rain = 0
KPAD 200020Z 17010KT 19/03 A298 RMK A01 T01910025  RH  034%=      5-min Rain = 0
KPAD 200025Z 16010KT 19/02 A298 RMK A01 T01900024  RH  034%=      5-min Rain = 0
KPAD 200030Z 16010KT 19/02 A298 RMK A01 T01900023  RH  033%=      5-min Rain = 0
KPAD 200035Z 16011KT 19/02 A298 RMK A01 T01900023  RH  033%=      5-min Rain = 0
KPAD 200040Z 16011KT 19/02 A298 RMK A01 T01910023  RH  033%=      5-min Rain = 0
KPAD 200045Z 17010KT 19/02 A298 RMK A01 T01900024  RH  034%=      5-min Rain = 0
KPAD 200050Z 17011KT 19/03 A298 RMK A01 T01900025  RH  034%=      5-min Rain = 0
KPAD 200055Z 17012KT 19/03 A2979 RMK A01 T01910027  RH  034%=      5-min Rain = 0
KPAD 200100Z 17011KT 19/03 A2979 RMK A01 T01910030  RH  035%=      5-min Rain = 0
KPAD 200105Z 16012KT 19/03 A2979 RMK A01 T01910034  RH  036%=      5-min Rain = 0
KPAD 200110Z 17012KT 19/04 A298 RMK A01 T01910037  RH  037%=      5-min Rain = 0
KPAD 200115Z 17012KT 19/04 A298 RMK A01 T01910040  RH  037%=      5-min Rain = 0
KPAD 200120Z 17013KT 19/04 A2979 RMK A01 T01910042  RH  038%=      5-min Rain = 0
KPAD 200125Z 17011KT 19/04 A298 RMK A01 T01890044  RH  039%=      5-min Rain = 0
KPAD 200130Z 17012G17KT 19/05 A2979 RMK A01 T01880046  RH  040%=      5-min Rain = 0
KPAD 200135Z 17012KT 19/05 A2979 RMK A01 T01870047  RH  040%=      5-min Rain = 0
KPAD 200140Z 17012KT 19/05 A2979 RMK A01 T01850048  RH  041%=      5-min Rain = 0
KPAD 200145Z 17011KT 18/05 A2979 RMK A01 T01830050  RH  042%=      5-min Rain = 0
KPAD 200150Z 17011KT 18/05 A2979 RMK A01 T01820051  RH  043%=      5-min Rain = 0
KPAD 200155Z 17011KT 18/05 A2979 RMK A01 T01810052  RH  044%=      5-min Rain = 0
KPAD 200200Z 17011G16KT 18/05 A298 RMK A01 T01810054  RH  044%=      5-min Rain = 0
KPAD 200205Z 17012KT 18/05 A298 RMK A01 T01810054  RH  044%=      5-min Rain = 0
KPAD 200210Z 17012KT 18/06 A298 RMK A01 T01800055  RH  045%=      5-min Rain = 0
KPAD 200215Z 17011KT 18/06 A298 RMK A01 T01780055  RH  045%=      5-min Rain = 0
KPAD 200220Z 17010KT 17/06 A298 RMK A01 T01740055  RH  047%=      5-min Rain = 0
KPAD 200225Z 18009KT 17/06 A298 RMK A01 T01710056  RH  048%=      5-min Rain = 0
KPAD 200230Z 18009KT 17/06 A298 RMK A01 T01680056  RH  049%=      5-min Rain = 0
KPAD 200235Z 18008KT 16/06 A298 RMK A01 T01640056  RH  050%=      5-min Rain = 0
KPAD 200240Z 19008KT 16/06 A298 RMK A01 T01590056  RH  051%=      5-min Rain = 0
KPAD 200245Z 19009KT 16/06 A298 RMK A01 T01550056  RH  053%=      5-min Rain = 0
KPAD 200250Z 19009KT 15/06 A298 RMK A01 T01520056  RH  054%=      5-min Rain = 0
KPAD 200255Z 19009KT 15/06 A298 RMK A01 T01490056  RH  055%=      5-min Rain = 0
KPAD 200300Z 19009KT 15/06 A298 RMK A01 T01450055  RH  056%=      5-min Rain = 0
KPAD 200305Z 19009KT 14/06 A298 RMK A01 T01400055  RH  058%=      5-min Rain = 0
KPAD 200310Z 19009KT 14/06 A298 RMK A01 T01380055  RH  059%=      5-min Rain = 0
KPAD 200315Z 19009KT 14/06 A298 RMK A01 T01360055  RH  059%=      5-min Rain = 0
KPAD 200320Z 19009KT 13/06 A298 RMK A01 T01340055  RH  060%=      5-min Rain = 0
KPAD 200325Z 19009KT 13/06 A298 RMK A01 T01340056  RH  060%=      5-min Rain = 0
KPAD 200330Z 18009KT 14/06 A298 RMK A01 T01370056  RH  060%=      5-min Rain = 0
KPAD 200335Z 18008KT 14/06 A298 RMK A01 T01380057  RH  059%=      5-min Rain = 0
KPAD 200340Z 18008KT 14/06 A298 RMK A01 T01380056  RH  059%=      5-min Rain = 0
KPAD 200345Z 18007KT 14/06 A298 RMK A01 T01360056  RH  060%=      5-min Rain = 0
KPAD 200350Z 18007KT 13/06 A298 RMK A01 T01340056  RH  060%=      5-min Rain = 0
KPAD 200355Z 19005KT 13/05 A2981 RMK A01 T01310054  RH  061%=      5-min Rain = 0
KPAD 200400Z 20006KT 13/05 A2981 RMK A01 T01260054  RH  063%=      5-min Rain = 0
KPAD 200405Z 19007KT 13/06 A2981 RMK A01 T01250055  RH  064%=      5-min Rain = 0
KPAD 200410Z 19007KT 13/06 A2981 RMK A01 T01260057  RH  064%=      5-min Rain = 0
KPAD 200415Z 19008KT 13/06 A298 RMK A01 T01310060  RH  063%=      5-min Rain = 0
KPAD 200420Z 19009KT 14/06 A298 RMK A01 T01380062  RH  061%=      5-min Rain = 0
KPAD 200425Z 19010KT 14/06 A298 RMK A01 T01430063  RH  060%=      5-min Rain = 0
KPAD 200430Z 19010KT 15/06 A298 RMK A01 T01460064  RH  059%=      5-min Rain = 0
KPAD 200435Z 19011KT 15/06 A298 RMK A01 T01490064  RH  058%=      5-min Rain = 0
KPAD 200440Z 19010KT 15/06 A298 RMK A01 T01500064  RH  058%=      5-min Rain = 0
KPAD 200445Z 19010KT 15/06 A298 RMK A01 T01490064  RH  058%=      5-min Rain = 0
KPAD 200450Z 19010KT 15/06 A298 RMK A01 T01470064  RH  059%=      5-min Rain = 0
KPAD 200455Z 19010KT 14/06 A298 RMK A01 T01430063  RH  060%=      5-min Rain = 0
KPAD 200500Z 19010KT 14/06 A298 RMK A01 T01400064  RH  061%=      5-min Rain = 0
KPAD 200505Z 19010KT 14/06 A298 RMK A01 T01370063  RH  063%=      5-min Rain = 0
KPAD 200510Z 19010KT 13/06 A298 RMK A01 T01330063  RH  064%=      5-min Rain = 0
KPAD 200515Z 19009KT 13/06 A298 RMK A01 T01300063  RH  065%=      5-min Rain = 0
KPAD 200520Z 19009KT 13/06 A298 RMK A01 T01290063  RH  066%=      5-min Rain = 0
KPAD 200525Z 19009KT 13/06 A2981 RMK A01 T01290064  RH  066%=      5-min Rain = 0
KPAD 200530Z 19009KT 13/07 A2981 RMK A01 T01300065  RH  066%=      5-min Rain = 0
KPAD 200535Z 18009KT 13/07 A298 RMK A01 T01300065  RH  066%=      5-min Rain = 0
KPAD 200540Z 18010KT 13/07 A298 RMK A01 T01300065  RH  066%=      5-min Rain = 0
KPAD 200545Z 19009KT 13/07 A298 RMK A01 T01290065  RH  067%=      5-min Rain = 0
KPAD 200550Z 19010KT 13/07 A298 RMK A01 T01290066  RH  067%=      5-min Rain = 0
KPAD 200555Z 19010KT 13/07 A298 RMK A01 T01280066  RH  067%=      5-min Rain = 0

Page generated in 0.0091 seconds.